Time;durP1;ratioP1;P1;durP2;ratioP2;P2;SDS_P1;SDS_P2;PMS_P1;PMS_P2;Temp;Humidity;BMP_temperature;BMP_pressure;BME280_temperature;BME280_humidity;BME280_pressure;Samples;Min_cycle;Max_cycle;Signal;HPM_P1;HPM_P2
2023/02/24 00:01:25;;;;;;;11.93;9.63;;;;;;;7.05;100.00;95390.25;5034951;28;24443;-78
2023/02/24 00:03:55;;;;;;;9.82;8.82;;;;;;;7.05;100.00;95390.25;5031217;28;20846;-77
2023/02/24 00:06:22;;;;;;;10.95;9.82;;;;;;;7.09;100.00;95388.34;5023828;28;20766;-78
2023/02/24 00:08:49;;;;;;;11.65;10.45;;;;;;;7.11;100.00;95382.19;5024052;28;24472;-78
2023/02/24 00:11:17;;;;;;;11.65;10.02;;;;;;;7.13;100.00;95380.38;5021570;28;20768;-79
2023/02/24 00:13:46;;;;;;;12.32;9.75;;;;;;;7.13;100.00;95377.78;5026978;28;20808;-78
2023/02/24 00:16:14;;;;;;;13.88;10.45;;;;;;;7.16;100.00;95376.78;5020840;28;20819;-78
2023/02/24 00:18:40;;;;;;;16.40;10.47;;;;;;;7.18;100.00;95380.94;5026992;28;20851;-79
2023/02/24 00:21:13;;;;;;;10.85;9.85;;;;;;;7.17;100.00;95381.03;5022678;28;20776;-79
2023/02/24 00:23:41;;;;;;;16.45;10.10;;;;;;;7.14;100.00;95378.63;5023912;28;24981;-79
2023/02/24 00:26:09;;;;;;;11.50;9.52;;;;;;;7.15;100.00;95369.97;5017760;28;24444;-78
2023/02/24 00:28:37;;;;;;;19.73;10.23;;;;;;;7.28;100.00;95371.78;5022763;28;21160;-78
2023/02/24 00:31:04;;;;;;;14.25;10.13;;;;;;;7.42;100.00;95368.44;5021393;28;24441;-78
2023/02/24 00:33:31;;;;;;;16.83;7.95;;;;;;;7.46;100.00;95362.19;5021611;28;24440;-78
2023/02/24 00:36:04;;;;;;;13.65;8.70;;;;;;;7.45;100.00;95363.09;5024965;28;24443;-79
2023/02/24 00:38:34;;;;;;;16.73;9.15;;;;;;;7.38;100.00;95350.63;5024257;28;24436;-78
2023/02/24 00:41:02;;;;;;;18.58;9.45;;;;;;;7.32;100.00;95354.41;5029386;28;20727;-78
2023/02/24 00:43:29;;;;;;;19.65;10.18;;;;;;;7.16;100.00;95351.88;5015489;28;20780;-78
2023/02/24 00:45:55;;;;;;;16.05;9.75;;;;;;;7.16;100.00;95356.19;5029518;28;24458;-78
2023/02/24 00:48:27;;;;;;;20.07;10.70;;;;;;;7.05;100.00;95356.78;5025766;28;24480;-79
2023/02/24 00:50:54;;;;;;;18.40;9.95;;;;;;;7.02;100.00;95346.66;5026245;28;20843;-78
2023/02/24 00:53:20;;;;;;;21.38;10.82;;;;;;;7.06;100.00;95343.00;5027291;28;24446;-79
2023/02/24 00:55:48;;;;;;;26.85;11.15;;;;;;;7.05;100.00;95343.91;5025321;28;24443;-78
2023/02/24 00:58:18;;;;;;;18.08;12.23;;;;;;;7.07;100.00;95339.50;5022946;28;20815;-79
2023/02/24 01:00:46;;;;;;;12.27;11.07;;;;;;;7.00;100.00;95346.72;5026084;28;21086;-78
2023/02/24 01:03:12;;;;;;;13.60;11.15;;;;;;;6.90;100.00;95345.59;5027718;28;20789;-78
2023/02/24 01:05:39;;;;;;;12.32;10.82;;;;;;;6.93;100.00;95342.00;5024171;28;24440;-78
2023/02/24 01:08:06;;;;;;;14.70;12.52;;;;;;;6.95;100.00;95341.00;5026392;28;24440;-79
2023/02/24 01:10:34;;;;;;;19.70;15.57;;;;;;;6.86;100.00;95338.94;5016200;28;20794;-78
2023/02/24 01:13:01;;;;;;;22.08;15.93;;;;;;;6.89;100.00;95336.19;5024610;28;24434;-78
2023/02/24 01:15:27;;;;;;;15.55;12.52;;;;;;;6.93;100.00;95335.09;5019952;28;20787;-78
2023/02/24 01:17:54;;;;;;;16.85;12.43;;;;;;;6.94;100.00;95331.63;5024522;28;24448;-79
2023/02/24 01:20:20;;;;;;;17.23;14.82;;;;;;;7.00;100.00;95336.41;5023218;28;20774;-78
2023/02/24 01:22:52;;;;;;;16.50;14.05;;;;;;;6.97;100.00;95334.03;5027866;28;24444;-79
2023/02/24 01:25:19;;;;;;;24.00;16.92;;;;;;;6.88;100.00;95333.72;5022625;28;20690;-79
2023/02/24 01:27:45;;;;;;;23.02;16.63;;;;;;;6.85;100.00;95326.16;5020297;28;20868;-79
2023/02/24 01:30:17;;;;;;;24.70;17.85;;;;;;;6.91;100.00;95326.66;5023771;28;24447;-79
2023/02/24 01:32:45;;;;;;;25.77;19.40;;;;;;;6.86;100.00;95326.09;5023367;28;20756;-78
2023/02/24 01:35:12;;;;;;;21.48;19.17;;;;;;;6.82;100.00;95321.16;5014957;28;20841;-78
2023/02/24 01:37:39;;;;;;;20.92;18.55;;;;;;;6.87;100.00;95326.91;5020872;28;20873;-78
2023/02/24 01:40:17;;;;;;;26.83;21.47;;;;;;;6.69;100.00;95327.00;5022280;28;24474;-78
2023/02/24 01:42:46;;;;;;;23.75;20.80;;;;;;;6.72;100.00;95326.00;5017423;28;20728;-78
2023/02/24 01:45:17;;;;;;;23.23;20.10;;;;;;;6.87;100.00;95320.00;5014499;28;20762;-78
2023/02/24 01:47:46;;;;;;;26.20;20.27;;;;;;;6.81;100.00;95322.09;5022866;28;20771;-78
2023/02/24 01:50:14;;;;;;;28.17;21.40;;;;;;;6.82;100.00;95319.41;5016210;28;20819;-78
2023/02/24 01:52:44;;;;;;;27.73;21.52;;;;;;;6.75;100.00;95315.56;5022575;28;20814;-78
2023/02/24 01:55:18;;;;;;;26.23;20.33;;;;;;;6.78;100.00;95312.78;5013382;28;20702;-78
2023/02/24 01:57:46;;;;;;;21.95;19.58;;;;;;;6.81;100.00;95309.22;5022465;28;20789;-78
2023/02/24 02:00:31;;;;;;;22.15;18.95;;;;;;;6.87;100.00;95309.72;5022113;28;24443;-78
2023/02/24 02:03:02;;;;;;;25.80;20.67;;;;;;;7.07;100.00;95302.63;5022858;28;20662;-78
2023/02/24 02:05:29;;;;;;;25.25;20.80;;;;;;;7.20;100.00;95304.41;5026486;28;20685;-78
2023/02/24 02:07:56;;;;;;;23.30;20.80;;;;;;;7.19;100.00;95301.91;5025262;28;24508;-78
2023/02/24 02:10:24;;;;;;;22.77;19.80;;;;;;;7.03;100.00;95304.53;5020059;28;24467;-78
2023/02/24 02:12:50;;;;;;;22.52;18.60;;;;;;;6.92;100.00;95291.44;5025031;28;20763;-78
2023/02/24 02:15:19;;;;;;;22.15;19.48;;;;;;;6.78;100.00;95298.16;5021748;28;24432;-78
2023/02/24 02:17:55;;;;;;;26.20;20.50;;;;;;;6.71;100.00;95296.00;5019333;28;20867;-77
2023/02/24 02:21:00;;;;;;;24.45;21.90;;;;;;;6.64;100.00;95285.25;5018319;28;20792;-78
2023/02/24 02:23:45;;;;;;;27.25;21.55;;;;;;;6.61;100.00;95287.16;5021465;28;20738;-78
2023/02/24 02:26:39;;;;;;;28.27;21.70;;;;;;;6.55;100.00;95270.31;5012144;28;20738;-78
2023/02/24 02:29:24;;;;;;;27.05;23.15;;;;;;;6.42;100.00;95264.19;5023042;28;20664;-78
2023/02/24 02:32:23;;;;;;;28.70;23.15;;;;;;;6.41;100.00;95270.22;5020483;28;20783;-78
2023/02/24 02:34:56;;;;;;;33.65;23.23;;;;;;;6.47;100.00;95267.34;5014248;28;21005;-78
2023/02/24 02:37:32;;;;;;;28.13;23.10;;;;;;;6.51;100.00;95266.25;5019578;28;21062;-78
2023/02/24 02:40:14;;;;;;;26.05;22.65;;;;;;;6.43;100.00;95268.41;5021786;28;20630;-78
2023/02/24 02:42:44;;;;;;;28.60;23.55;;;;;;;6.50;100.00;95267.16;5022155;28;20784;-79
2023/02/24 02:45:16;;;;;;;33.95;25.08;;;;;;;6.42;100.00;95261.63;5017813;28;20763;-78
2023/02/24 02:47:49;;;;;;;28.25;22.85;;;;;;;6.36;100.00;95264.50;5022696;28;21433;-78
2023/02/24 02:50:22;;;;;;;30.65;25.50;;;;;;;6.32;100.00;95261.28;5020404;28;21303;-78
2023/02/24 02:52:53;;;;;;;30.63;23.70;;;;;;;6.30;100.00;95257.94;5022022;28;20661;-78
2023/02/24 02:55:24;;;;;;;25.85;22.38;;;;;;;6.36;100.00;95255.06;5025956;28;22036;-78
2023/02/24 02:57:54;;;;;;;27.17;24.17;;;;;;;6.36;100.00;95257.63;5023410;28;20770;-78
2023/02/24 03:00:27;;;;;;;28.87;23.90;;;;;;;6.40;100.00;95256.53;5024240;28;20826;-78
2023/02/24 03:03:02;;;;;;;35.80;25.85;;;;;;;6.54;100.00;95251.47;5024319;28;20715;-78
2023/02/24 03:05:32;;;;;;;29.05;24.73;;;;;;;6.51;100.00;95246.50;5021269;28;20735;-78
2023/02/24 03:08:04;;;;;;;27.67;24.60;;;;;;;6.43;100.00;95248.66;5020261;28;20660;-78
2023/02/24 03:10:33;;;;;;;29.95;24.10;;;;;;;6.55;100.00;95254.88;5016737;28;20738;-78
2023/02/24 03:13:02;;;;;;;30.25;24.33;;;;;;;6.59;100.00;95245.25;5025427;28;20761;-78
2023/02/24 03:15:31;;;;;;;32.03;26.05;;;;;;;6.67;100.00;95236.16;5021281;28;21294;-78
2023/02/24 03:18:09;;;;;;;37.05;26.52;;;;;;;6.69;100.00;95238.69;5022865;28;20814;-78
2023/02/24 03:20:41;;;;;;;33.47;26.50;;;;;;;6.62;100.00;95227.88;5017456;28;20674;-78
2023/02/24 03:23:15;;;;;;;29.50;25.73;;;;;;;6.55;100.00;95235.13;5024006;28;21166;-78
2023/02/24 03:25:47;;;;;;;33.58;25.15;;;;;;;6.53;100.00;95239.53;5011638;28;24990;-78
2023/02/24 03:28:19;;;;;;;30.00;25.43;;;;;;;6.54;100.00;95236.03;5023180;28;20695;-78
2023/02/24 03:30:53;;;;;;;36.40;26.23;;;;;;;6.57;100.00;95229.91;5020929;28;20782;-78
2023/02/24 03:33:23;;;;;;;36.42;27.70;;;;;;;6.73;100.00;95228.13;5017797;28;20653;-78
2023/02/24 03:35:52;;;;;;;35.42;27.55;;;;;;;6.76;100.00;95227.94;5024775;28;20749;-78
2023/02/24 03:38:22;;;;;;;32.17;26.70;;;;;;;6.81;100.00;95232.00;5026152;28;20750;-78
2023/02/24 03:40:50;;;;;;;35.95;27.13;;;;;;;6.85;100.00;95231.72;5024486;28;20770;-77
2023/02/24 03:43:21;;;;;;;34.15;27.48;;;;;;;7.01;100.00;95232.53;5030998;28;20771;-78
2023/02/24 03:45:48;;;;;;;38.72;28.90;;;;;;;7.01;100.00;95232.53;5023989;28;20729;-78
2023/02/24 03:48:16;;;;;;;38.88;29.38;;;;;;;6.93;100.00;95226.97;5019581;28;21345;-78
2023/02/24 03:50:43;;;;;;;38.58;29.30;;;;;;;6.82;100.00;95219.03;5020405;28;24543;-79
2023/02/24 03:53:29;;;;;;;37.90;29.10;;;;;;;6.86;100.00;95220.53;5016137;28;20801;-78
2023/02/24 03:56:03;;;;;;;41.35;29.42;;;;;;;6.78;100.00;95220.94;5021992;28;20658;-78
2023/02/24 03:58:42;;;;;;;33.72;27.88;;;;;;;6.75;100.00;95225.47;5020742;28;25151;-78
2023/02/24 04:01:15;;;;;;;37.83;28.80;;;;;;;6.59;100.00;95227.22;5009805;28;25110;-78
2023/02/24 04:03:49;;;;;;;42.22;29.17;;;;;;;6.49;100.00;95221.78;5024643;28;20652;-78
2023/02/24 04:06:22;;;;;;;37.78;27.90;;;;;;;6.58;100.00;95223.84;5011336;28;25119;-78
2023/02/24 04:08:54;;;;;;;35.95;28.90;;;;;;;6.72;100.00;95218.75;5023725;28;20657;-78
2023/02/24 04:11:26;;;;;;;34.45;27.80;;;;;;;6.67;100.00;95218.16;5023890;28;20698;-77
2023/02/24 04:14:00;;;;;;;45.88;28.67;;;;;;;6.57;100.00;95221.34;5019014;28;20789;-78
2023/02/24 04:16:35;;;;;;;34.33;27.60;;;;;;;6.68;100.00;95217.25;5019407;28;20732;-78
2023/02/24 04:19:06;;;;;;;41.78;29.67;;;;;;;6.65;100.00;95220.00;5013318;28;24445;-78
2023/02/24 04:21:35;;;;;;;36.72;29.10;;;;;;;6.83;100.00;95212.16;5019740;28;20792;-78
2023/02/24 04:24:10;;;;;;;38.20;28.98;;;;;;;6.72;100.00;95221.31;5019131;28;24449;-78
2023/02/24 04:26:39;;;;;;;35.60;28.73;;;;;;;6.80;100.00;95218.31;5006912;28;24447;-79
2023/02/24 04:29:06;;;;;;;36.03;29.38;;;;;;;6.81;100.00;95214.81;5011173;28;20815;-78
2023/02/24 04:31:35;;;;;;;34.13;28.95;;;;;;;6.67;100.00;95209.63;5010536;28;21385;-78
2023/02/24 04:34:01;;;;;;;39.70;30.10;;;;;;;6.79;100.00;95208.94;5019668;28;24487;-78
2023/02/24 04:36:28;;;;;;;31.85;27.33;;;;;;;6.73;100.00;95212.69;5007590;28;24447;-78
2023/02/24 04:38:54;;;;;;;38.92;28.50;;;;;;;6.70;100.00;95207.69;5023152;28;24447;-78
2023/02/24 04:41:23;;;;;;;43.10;29.52;;;;;;;6.65;100.00;95201.16;5018336;28;24443;-78
2023/02/24 04:43:50;;;;;;;35.83;28.75;;;;;;;6.75;100.00;95192.84;5015160;28;20852;-79
2023/02/24 04:46:17;;;;;;;34.35;28.50;;;;;;;6.67;100.00;95196.75;5026785;28;24566;-78
2023/02/24 04:48:44;;;;;;;37.53;30.48;;;;;;;6.68;100.00;95195.84;5023007;28;24959;-78
2023/02/24 04:51:10;;;;;;;34.05;29.08;;;;;;;6.64;100.00;95190.06;5023161;28;24531;-78
2023/02/24 04:53:37;;;;;;;33.67;27.73;;;;;;;6.52;100.00;95186.41;5032022;28;24435;-78
2023/02/24 04:56:07;;;;;;;36.33;29.50;;;;;;;6.50;100.00;95185.66;5031472;28;24459;-78
2023/02/24 04:58:36;;;;;;;39.42;29.27;;;;;;;6.53;100.00;95182.94;5029905;28;24444;-78
2023/02/24 05:01:09;;;;;;;45.53;28.13;;;;;;;6.57;100.00;95185.34;5023887;28;20767;-78
2023/02/24 05:03:36;;;;;;;41.40;29.42;;;;;;;6.65;100.00;95183.16;5024262;28;24521;-77
2023/02/24 05:06:05;;;;;;;32.20;27.15;;;;;;;6.59;100.00;95175.78;5023528;28;24447;-77
2023/02/24 05:08:32;;;;;;;40.40;27.20;;;;;;;6.71;100.00;95175.06;5022182;28;24471;-78
2023/02/24 05:11:02;;;;;;;35.22;27.48;;;;;;;6.59;100.00;95170.63;5025586;28;24449;-78
2023/02/24 05:13:30;;;;;;;31.25;26.38;;;;;;;6.52;100.00;95172.72;5031417;28;24444;-78
2023/02/24 05:16:05;;;;;;;36.75;27.42;;;;;;;6.49;100.00;95171.16;5026762;28;20818;-78
2023/02/24 05:18:35;;;;;;;35.03;26.15;;;;;;;6.45;100.00;95173.97;5030567;28;24486;-78
2023/02/24 05:23:51;;;;;;;37.33;28.33;;;;;;;6.69;100.00;95162.31;5021781;28;24818;-77
2023/02/24 05:26:20;;;;;;;33.83;26.23;;;;;;;6.57;100.00;95157.03;5017523;28;20818;-77
2023/02/24 05:28:51;;;;;;;35.78;27.58;;;;;;;6.57;100.00;95151.88;5018486;28;25071;-77
2023/02/24 05:31:20;;;;;;;30.33;25.60;;;;;;;6.54;100.00;95150.31;5019161;28;24456;-77
2023/02/24 05:33:49;;;;;;;36.95;26.70;;;;;;;6.46;100.00;95145.59;5019475;28;20779;-77
2023/02/24 05:36:18;;;;;;;30.83;25.60;;;;;;;6.44;100.00;95137.13;5020320;28;24453;-77
2023/02/24 05:38:46;;;;;;;33.33;27.03;;;;;;;6.33;100.00;95129.19;5018525;28;25012;-77
2023/02/24 05:41:16;;;;;;;34.28;25.75;;;;;;;6.30;100.00;95126.78;5019455;28;20865;-77
2023/02/24 05:43:46;;;;;;;30.42;24.88;;;;;;;6.36;100.00;95123.06;5012385;28;20735;-77
2023/02/24 05:46:13;;;;;;;34.92;26.05;;;;;;;6.39;100.00;95116.00;5018034;28;24497;-77
2023/02/24 05:48:42;;;;;;;36.90;26.00;;;;;;;6.43;100.00;95107.19;5019729;28;24839;-76
2023/02/24 05:51:11;;;;;;;38.95;27.58;;;;;;;6.45;100.00;95110.50;5014992;28;20754;-76
2023/02/24 05:53:40;;;;;;;33.50;27.63;;;;;;;6.41;100.00;95109.00;5020359;28;24801;-76
2023/02/24 05:56:06;;;;;;;41.75;27.45;;;;;;;6.32;100.00;95106.16;5008826;28;20742;-76
2023/02/24 05:58:33;;;;;;;42.35;30.05;;;;;;;6.21;100.00;95107.56;5012277;28;24447;-77
2023/02/24 06:01:04;;;;;;;42.60;27.95;;;;;;;6.24;100.00;95112.53;5013722;28;24428;-77
2023/02/24 06:03:34;;;;;;;34.58;27.90;;;;;;;6.29;100.00;95100.25;5012449;28;24439;-82
2023/02/24 06:06:07;;;;;;;34.90;25.95;;;;;;;6.33;100.00;95100.06;5014368;28;20793;-80
2023/02/24 06:08:41;;;;;;;30.65;26.02;;;;;;;6.38;100.00;95104.06;5007490;28;20684;-81
2023/02/24 06:11:09;;;;;;;38.45;28.25;;;;;;;6.34;100.00;95100.00;5020701;28;20712;-82
2023/02/24 06:13:35;;;;;;;41.57;28.97;;;;;;;6.35;100.00;95096.50;5012719;28;20886;-81
2023/02/24 06:16:02;;;;;;;39.70;30.25;;;;;;;6.23;100.00;95097.19;5022117;28;20779;-81
2023/02/24 06:18:29;;;;;;;37.72;29.58;;;;;;;6.28;100.00;95090.88;5019994;28;24462;-80
2023/02/24 06:20:55;;;;;;;36.63;29.95;;;;;;;6.30;100.00;95096.78;5025606;28;24499;-80
2023/02/24 06:23:25;;;;;;;40.63;31.25;;;;;;;6.17;100.00;95085.53;5025124;28;24443;-81
2023/02/24 06:25:56;;;;;;;42.10;29.15;;;;;;;6.22;100.00;95090.41;5017671;28;20686;-81
2023/02/24 06:28:23;;;;;;;41.85;31.60;;;;;;;6.21;100.00;95094.72;5017574;28;20745;-81
2023/02/24 06:30:49;;;;;;;37.90;29.33;;;;;;;6.30;100.00;95095.94;5021083;28;24467;-80
2023/02/24 06:33:16;;;;;;;51.45;32.33;;;;;;;6.40;100.00;95083.38;5011571;28;20779;-80
2023/02/24 06:35:42;;;;;;;45.42;33.20;;;;;;;6.33;100.00;95094.94;5012860;28;24464;-80
2023/02/24 06:38:09;;;;;;;60.65;35.80;;;;;;;6.37;100.00;95080.97;5011096;28;24444;-77
2023/02/24 06:40:37;;;;;;;49.22;31.90;;;;;;;6.25;100.00;95091.06;5010676;28;24501;-82
2023/02/24 06:43:04;;;;;;;53.90;33.07;;;;;;;6.29;100.00;95096.84;5013672;28;21409;-81
2023/02/24 06:45:31;;;;;;;49.13;31.30;;;;;;;6.19;100.00;95094.00;5010971;28;20848;-81
2023/02/24 06:47:57;;;;;;;66.93;33.45;;;;;;;6.13;100.00;95096.06;5020485;28;24442;-82
2023/02/24 06:50:24;;;;;;;117.45;28.67;;;;;;;6.03;100.00;95099.13;5015730;28;24440;-81
2023/02/24 06:52:54;;;;;;;147.90;25.00;;;;;;;5.88;100.00;95099.97;5021829;28;20830;-80
2023/02/24 06:55:26;;;;;;;149.63;26.58;;;;;;;5.80;100.00;95095.25;5021808;28;24969;-79
2023/02/24 06:57:56;;;;;;;111.32;26.23;;;;;;;5.73;100.00;95096.50;5022234;28;21175;-80
2023/02/24 07:00:36;;;;;;;86.45;25.60;;;;;;;5.69;100.00;95095.00;5014210;28;20734;-81
2023/02/24 07:03:13;;;;;;;92.60;25.55;;;;;;;5.67;100.00;95094.25;5024394;28;24436;-81
2023/02/24 07:05:41;;;;;;;92.60;27.15;;;;;;;5.66;100.00;95096.91;5018373;28;24431;-81
2023/02/24 07:08:08;;;;;;;80.65;25.73;;;;;;;5.68;100.00;95097.66;5026116;28;24452;-81
2023/02/24 07:10:35;;;;;;;54.97;25.98;;;;;;;5.73;100.00;95093.91;5011882;28;24444;-80
2023/02/24 07:13:03;;;;;;;82.43;27.02;;;;;;;5.70;100.00;95091.50;5018931;28;24452;-81
2023/02/24 07:15:30;;;;;;;36.75;24.42;;;;;;;5.80;100.00;95090.09;5014450;28;25004;-81
2023/02/24 07:17:57;;;;;;;32.60;24.52;;;;;;;5.89;100.00;95088.75;5026247;28;20860;-81
2023/02/24 07:20:25;;;;;;;27.52;24.55;;;;;;;5.98;100.00;95087.47;5014059;28;24439;-79
2023/02/24 07:22:51;;;;;;;32.47;24.75;;;;;;;6.07;100.00;95089.50;5015194;28;24997;-78
2023/02/24 07:25:31;;;;;;;35.90;25.63;;;;;;;6.15;100.00;95087.34;5018102;28;24445;-80
2023/02/24 07:28:00;;;;;;;37.28;26.85;;;;;;;6.16;100.00;95088.19;5021162;28;20772;-80
2023/02/24 07:30:29;;;;;;;45.47;28.02;;;;;;;6.19;100.00;95085.41;5019304;28;20788;-81
2023/02/24 07:32:56;;;;;;;39.10;28.88;;;;;;;6.18;100.00;95081.19;5019133;28;20828;-79
2023/02/24 07:35:23;;;;;;;45.13;28.58;;;;;;;6.17;100.00;95076.97;5022826;28;24447;-80
2023/02/24 07:37:50;;;;;;;42.42;27.67;;;;;;;6.21;100.00;95079.28;5021951;28;20815;-81
2023/02/24 07:40:20;;;;;;;48.80;26.73;;;;;;;6.19;100.00;95073.41;5009138;28;20867;-81
2023/02/24 07:42:47;;;;;;;34.17;27.23;;;;;;;6.24;100.00;95076.53;5016840;28;20810;-81
2023/02/24 07:45:14;;;;;;;41.80;26.05;;;;;;;6.33;100.00;95066.66;5009520;28;24798;-81
2023/02/24 07:47:42;;;;;;;36.40;25.92;;;;;;;6.30;100.00;95072.78;5022310;28;24443;-83
2023/02/24 07:50:13;;;;;;;30.10;23.95;;;;;;;6.35;100.00;95081.09;5022056;28;20773;-84
2023/02/24 07:52:40;;;;;;;29.58;21.88;;;;;;;6.46;100.00;95073.56;5021054;28;20801;-83
2023/02/24 07:55:08;;;;;;;32.88;22.08;;;;;;;6.42;100.00;95074.69;5026694;28;20781;-83
2023/02/24 07:57:36;;;;;;;30.08;21.13;;;;;;;6.37;100.00;95070.69;5021897;28;25056;-82
2023/02/24 08:00:15;;;;;;;24.30;19.15;;;;;;;6.38;100.00;95077.47;5019761;28;21183;-83
2023/02/24 08:02:43;;;;;;;24.10;18.05;;;;;;;6.52;100.00;95073.19;5018556;28;21313;-83
2023/02/24 08:05:10;;;;;;;23.77;17.67;;;;;;;6.49;100.00;95072.59;5021114;28;20779;-76
2023/02/24 08:07:36;;;;;;;20.15;16.23;;;;;;;6.37;100.00;95063.81;5015013;28;24449;-80
2023/02/24 08:10:12;;;;;;;22.35;14.63;;;;;;;6.47;100.00;95066.69;5015113;28;20774;-80
2023/02/24 08:12:42;;;;;;;21.63;15.38;;;;;;;6.50;100.00;95069.09;5022108;28;21320;-80
2023/02/24 08:15:16;;;;;;;19.25;14.27;;;;;;;6.44;100.00;95059.13;5020617;28;20761;-79
2023/02/24 08:17:46;;;;;;;20.70;14.13;;;;;;;6.44;100.00;95054.00;5020649;28;20720;-80
2023/02/24 08:20:23;;;;;;;16.90;12.63;;;;;;;6.58;100.00;95056.59;5013221;28;20864;-80
2023/02/24 08:22:52;;;;;;;20.40;13.53;;;;;;;6.77;100.00;95051.19;5032499;28;20875;-83
2023/02/24 08:25:23;;;;;;;22.45;12.63;;;;;;;6.83;100.00;95048.28;5030308;28;20833;-81
2023/02/24 08:27:56;;;;;;;16.03;10.90;;;;;;;6.74;100.00;95039.31;5023749;28;20721;-80
2023/02/24 08:30:28;;;;;;;19.60;10.77;;;;;;;6.66;100.00;95048.44;5025328;28;20760;-79
2023/02/24 08:32:57;;;;;;;20.67;10.77;;;;;;;6.69;100.00;95043.09;5031565;28;20728;-81
2023/02/24 08:35:30;;;;;;;18.55;10.55;;;;;;;6.68;100.00;95046.59;5037158;28;24867;-79
2023/02/24 08:38:00;;;;;;;15.95;9.80;;;;;;;6.83;100.00;95039.72;5029346;28;20780;-79
2023/02/24 08:40:38;;;;;;;15.98;10.20;;;;;;;6.93;100.00;95038.22;5023872;28;24504;-79
2023/02/24 08:43:15;;;;;;;18.35;10.35;;;;;;;6.96;100.00;95040.63;5025695;28;20726;-81
2023/02/24 08:45:44;;;;;;;14.80;10.20;;;;;;;6.99;100.00;95040.44;5024330;28;20721;-80
2023/02/24 08:48:25;;;;;;;16.73;10.48;;;;;;;6.99;100.00;95030.97;5020428;28;24475;-81
2023/02/24 08:50:52;;;;;;;20.73;11.10;;;;;;;7.00;100.00;95035.19;5022306;28;24444;-80
2023/02/24 08:53:19;;;;;;;15.63;9.85;;;;;;;7.00;100.00;95036.94;5026526;28;20834;-81
2023/02/24 08:55:50;;;;;;;25.30;11.18;;;;;;;7.02;100.00;95037.69;5024105;28;20774;-78
2023/02/24 08:58:17;;;;;;;21.80;10.48;;;;;;;7.00;100.00;95030.03;5027398;28;20724;-80
2023/02/24 09:00:48;;;;;;;18.25;10.07;;;;;;;7.20;100.00;95030.59;5015247;28;20782;-78
2023/02/24 09:03:27;;;;;;;17.52;9.30;;;;;;;7.14;100.00;95026.63;5019320;28;20702;-80
2023/02/24 09:05:59;;;;;;;21.33;10.40;;;;;;;7.12;100.00;95025.06;5030940;28;20676;-81
2023/02/24 09:08:31;;;;;;;16.27;9.23;;;;;;;7.22;100.00;95019.25;5028582;28;20790;-81
2023/02/24 09:10:59;;;;;;;15.25;9.60;;;;;;;7.59;100.00;95021.31;5026154;28;21105;-79
2023/02/24 09:13:31;;;;;;;13.53;9.40;;;;;;;8.04;100.00;95016.72;5035631;28;24479;-80
2023/02/24 09:15:59;;;;;;;20.13;9.15;;;;;;;8.58;100.00;95006.31;5025825;28;24441;-78
2023/02/24 09:18:29;;;;;;;16.48;8.82;;;;;;;8.76;100.00;95005.06;5034913;28;21368;-81
2023/02/24 09:20:55;;;;;;;13.93;8.23;;;;;;;9.13;100.00;95000.78;5030295;28;21312;-79
2023/02/24 09:23:28;;;;;;;17.17;8.57;;;;;;;9.19;100.00;95004.69;5028703;28;24455;-82
2023/02/24 09:25:56;;;;;;;15.57;8.38;;;;;;;9.15;100.00;95000.69;5023068;28;24456;-81
2023/02/24 09:28:23;;;;;;;17.92;7.93;;;;;;;9.40;100.00;94997.22;5022957;28;24474;-80
2023/02/24 09:30:55;;;;;;;16.25;7.93;;;;;;;9.73;100.00;95000.94;5028512;28;20797;-80
2023/02/24 09:33:25;;;;;;;18.20;8.10;;;;;;;9.68;100.00;95002.09;5034217;28;24526;-79
2023/02/24 09:36:09;;;;;;;14.38;7.18;;;;;;;9.83;100.00;94999.34;5027890;28;24443;-79
2023/02/24 09:41:32;;;;;;;14.77;7.72;;;;;;;9.35;100.00;94994.97;5017104;28;24439;-82
2023/02/24 09:44:02;;;;;;;15.75;7.07;;;;;;;9.26;100.00;94993.00;5030112;28;24439;-83
2023/02/24 09:46:32;;;;;;;14.80;6.75;;;;;;;9.18;100.00;94992.72;5026698;28;24978;-81
2023/02/24 09:49:07;;;;;;;11.68;6.55;;;;;;;9.26;100.00;94982.66;5021534;28;24447;-79
2023/02/24 09:51:41;;;;;;;19.35;6.90;;;;;;;8.88;100.00;94982.75;5022441;28;24427;-79
2023/02/24 09:54:14;;;;;;;11.27;6.95;;;;;;;8.90;100.00;94989.47;5021943;28;24444;-80
2023/02/24 09:56:48;;;;;;;22.08;7.82;;;;;;;8.64;100.00;94982.66;5023201;28;24440;-79
2023/02/24 09:59:25;;;;;;;13.50;7.10;;;;;;;8.59;100.00;94977.81;5021743;28;24443;-78
2023/02/24 10:02:00;;;;;;;13.10;6.18;;;;;;;8.67;100.00;94974.69;5021550;28;24450;-80
2023/02/24 10:04:47;;;;;;;14.63;7.50;;;;;;;8.77;100.00;94975.72;5002410;28;24830;-79
2023/02/24 10:07:18;;;;;;;15.65;7.30;;;;;;;8.40;100.00;94969.66;5017661;28;24448;-80
2023/02/24 10:09:49;;;;;;;24.67;6.72;;;;;;;8.28;100.00;94968.69;5023322;28;24443;-80
2023/02/24 10:12:22;;;;;;;13.32;6.20;;;;;;;8.28;100.00;94971.28;5016798;28;24448;-79
2023/02/24 10:15:17;;;;;;;15.15;6.30;;;;;;;8.35;100.00;94967.34;5015157;28;24439;-80
2023/02/24 10:17:46;;;;;;;11.40;6.47;;;;;;;8.31;100.00;94960.75;5019700;28;24463;-78
2023/02/24 10:20:29;;;;;;;16.37;6.23;;;;;;;8.17;100.00;94968.56;5018200;28;24436;-79
2023/02/24 10:23:03;;;;;;;17.08;7.13;;;;;;;8.12;100.00;94968.88;5028489;28;24477;-80
2023/02/24 10:25:52;;;;;;;17.65;6.95;;;;;;;8.17;100.00;94963.41;5022786;28;24428;-80
2023/02/24 10:28:34;;;;;;;15.05;7.05;;;;;;;7.97;100.00;94959.56;5014439;28;24544;-80
2023/02/24 10:31:09;;;;;;;23.50;7.93;;;;;;;7.99;100.00;94961.13;5020174;28;24451;-81
2023/02/24 10:33:43;;;;;;;22.38;8.50;;;;;;;7.92;100.00;94959.03;5025529;28;24495;-79
2023/02/24 10:36:15;;;;;;;13.07;7.55;;;;;;;7.79;100.00;94953.88;5009261;28;20784;-77
2023/02/24 10:38:45;;;;;;;19.80;8.40;;;;;;;7.87;100.00;94953.38;5019965;28;20890;-77
2023/02/24 10:41:12;;;;;;;16.47;8.60;;;;;;;7.82;100.00;94953.63;5011772;28;20842;-78
2023/02/24 10:43:45;;;;;;;17.80;8.40;;;;;;;7.67;100.00;94957.22;5014888;28;20864;-78
2023/02/24 10:46:24;;;;;;;17.40;8.43;;;;;;;7.71;100.00;94951.78;5013871;28;24486;-77
2023/02/24 10:48:59;;;;;;;21.10;9.15;;;;;;;7.64;100.00;94955.69;5019503;28;20775;-77
2023/02/24 10:51:30;;;;;;;15.05;8.75;;;;;;;7.69;100.00;94947.66;5027238;28;20749;-77
2023/02/24 10:54:24;;;;;;;20.95;9.73;;;;;;;7.57;100.00;94951.03;5019810;28;24894;-77
2023/02/24 10:57:06;;;;;;;19.80;9.20;;;;;;;7.55;100.00;94945.13;5014235;28;24555;-77
2023/02/24 10:59:57;;;;;;;19.80;9.50;;;;;;;7.58;100.00;94945.75;5017635;28;24539;-77
2023/02/24 11:02:36;;;;;;;21.20;10.02;;;;;;;7.59;100.00;94931.13;5019871;28;24440;-77
2023/02/24 11:05:25;;;;;;;20.65;9.90;;;;;;;7.64;100.00;94936.78;5022760;28;24444;-77
2023/02/24 11:08:14;;;;;;;20.08;10.32;;;;;;;7.55;100.00;94929.66;5012769;28;21247;-78
2023/02/24 11:10:57;;;;;;;24.48;9.93;;;;;;;7.56;100.00;94933.88;5013701;28;20656;-77
2023/02/24 11:18:55;;;;;;;19.85;11.40;;;;;;;7.65;100.00;94921.25;5021059;28;25078;-78
2023/02/24 11:21:25;;;;;;;21.75;10.57;;;;;;;7.68;100.00;94920.22;5017288;28;20784;-78
2023/02/24 11:23:55;;;;;;;24.42;11.15;;;;;;;7.58;100.00;94904.53;5022128;28;20769;-78
2023/02/24 11:26:25;;;;;;;22.80;11.40;;;;;;;7.47;100.00;94896.66;5011430;28;20786;-78
2023/02/24 11:29:05;;;;;;;20.17;11.53;;;;;;;7.51;100.00;94893.78;5020175;28;20837;-77
2023/02/24 11:31:50;;;;;;;19.13;10.57;;;;;;;7.73;100.00;94882.91;5011829;28;20901;-77
2023/02/24 11:34:23;;;;;;;22.13;12.40;;;;;;;7.68;100.00;94873.84;5013111;28;24806;-76
2023/02/24 11:36:58;;;;;;;23.67;11.88;;;;;;;7.65;100.00;94877.44;5018291;28;21240;-78
2023/02/24 11:39:40;;;;;;;21.50;11.57;;;;;;;7.65;100.00;94859.41;5024768;28;24434;-77
2023/02/24 11:42:14;;;;;;;20.63;10.65;;;;;;;7.61;100.00;94859.69;5015776;28;25005;-77
2023/02/24 11:44:48;;;;;;;20.05;10.88;;;;;;;7.74;100.00;94860.53;5019665;28;21207;-77
2023/02/24 11:47:20;;;;;;;23.30;10.68;;;;;;;7.84;100.00;94853.84;5018002;28;20781;-77
2023/02/24 11:49:51;;;;;;;19.30;11.15;;;;;;;7.95;100.00;94848.78;5020841;28;20722;-77